createdAt,value
2023-05-21T00:00:13.960Z,15.00
2023-05-21T00:05:15.034Z,15.00
2023-05-21T00:10:15.428Z,15.00
2023-05-21T00:15:14.239Z,14.90
2023-05-21T00:20:13.558Z,14.80
2023-05-21T00:25:13.088Z,14.80
2023-05-21T00:30:12.988Z,14.80
2023-05-21T00:35:11.775Z,14.80
2023-05-21T00:40:11.887Z,14.80
2023-05-21T00:45:10.899Z,14.90
2023-05-21T00:50:12.066Z,14.90
2023-05-21T00:55:11.445Z,14.80
2023-05-21T01:00:11.108Z,14.80
2023-05-21T01:05:12.102Z,14.90
2023-05-21T01:10:14.022Z,14.80
2023-05-21T01:15:13.558Z,14.60
2023-05-21T01:20:14.019Z,14.60
2023-05-21T01:25:13.941Z,14.60
2023-05-21T01:30:14.646Z,14.70
2023-05-21T01:35:16.050Z,14.60
2023-05-21T01:40:20.976Z,14.50
2023-05-21T01:45:20.447Z,14.40
2023-05-21T01:50:20.350Z,14.20
2023-05-21T01:55:24.492Z,14.10
2023-05-21T02:00:24.911Z,14.20
2023-05-21T02:05:23.300Z,14.10
2023-05-21T02:10:23.232Z,13.90
2023-05-21T02:15:21.847Z,13.90
2023-05-21T02:20:20.965Z,13.80
2023-05-21T02:25:21.417Z,13.80
2023-05-21T02:30:22.018Z,13.90
2023-05-21T02:35:20.594Z,13.90
2023-05-21T02:40:19.509Z,14.10
2023-05-21T02:45:18.286Z,14.00
2023-05-21T02:50:20.546Z,13.90
2023-05-21T02:55:26.187Z,14.00
2023-05-21T03:00:24.754Z,14.10
2023-05-21T03:05:24.830Z,14.20
2023-05-21T03:10:23.344Z,13.80
2023-05-21T03:15:24.566Z,13.70
2023-05-21T03:20:24.621Z,13.60
2023-05-21T03:25:25.609Z,13.60
2023-05-21T03:30:26.038Z,13.60
2023-05-21T03:35:47.953Z,13.70
2023-05-21T03:40:47.284Z,13.50
2023-05-21T03:45:46.229Z,13.60
2023-05-21T03:51:13.590Z,13.70
2023-05-21T03:56:12.229Z,13.80
2023-05-21T04:01:11.086Z,13.90
2023-05-21T04:06:10.633Z,13.80
2023-05-21T04:11:12.299Z,13.90
2023-05-21T04:16:11.432Z,14.00
2023-05-21T04:21:10.143Z,14.10
2023-05-21T04:26:09.114Z,14.10
2023-05-21T04:31:09.539Z,14.10
2023-05-21T04:36:10.173Z,14.20
2023-05-21T04:41:11.089Z,14.10
2023-05-21T04:46:10.989Z,14.10
2023-05-21T04:51:09.861Z,14.10
2023-05-21T04:56:09.600Z,14.20
2023-05-21T05:01:08.892Z,14.30
2023-05-21T05:06:09.286Z,14.40
2023-05-21T05:11:07.851Z,14.50
2023-05-21T05:16:07.546Z,14.60
2023-05-21T05:21:05.908Z,14.70
2023-05-21T05:26:05.927Z,14.80
2023-05-21T05:31:04.787Z,14.90
2023-05-21T05:36:04.568Z,14.90
2023-05-21T05:41:03.292Z,15.10
2023-05-21T05:46:03.192Z,15.30
2023-05-21T05:51:01.807Z,15.40
2023-05-21T05:56:00.961Z,15.60
2023-05-21T06:01:03.414Z,15.80
2023-05-21T06:06:02.225Z,16.10
2023-05-21T06:11:02.035Z,16.30
2023-05-21T06:16:00.665Z,16.60
2023-05-21T06:21:00.880Z,16.90
2023-05-21T06:26:00.232Z,17.10
2023-05-21T06:30:58.989Z,17.30
2023-05-21T06:35:58.282Z,17.60
2023-05-21T06:40:58.825Z,17.90
2023-05-21T06:46:11.257Z,18.20
2023-05-21T06:51:11.868Z,18.60
2023-05-21T06:56:11.876Z,19.00
2023-05-21T07:01:13.466Z,19.40
2023-05-21T07:06:12.424Z,19.60
2023-05-21T07:11:12.320Z,19.80
2023-05-21T07:16:12.511Z,20.40
2023-05-21T07:21:12.691Z,20.50
2023-05-21T07:26:13.313Z,20.80
2023-05-21T07:31:13.440Z,21.10
2023-05-21T07:36:17.429Z,21.50
2023-05-21T07:41:18.783Z,21.50
2023-05-21T07:46:18.916Z,21.60
2023-05-21T07:51:20.824Z,21.70
2023-05-21T07:56:21.163Z,22.20
2023-05-21T08:01:19.511Z,22.40
2023-05-21T08:06:18.094Z,22.70
2023-05-21T08:11:16.964Z,22.90
2023-05-21T08:16:17.379Z,23.10
2023-05-21T08:21:16.638Z,23.20
2023-05-21T08:26:16.767Z,23.40
2023-05-21T08:31:19.306Z,23.40
2023-05-21T08:36:17.980Z,23.60
2023-05-21T08:41:24.337Z,23.70
2023-05-21T08:46:25.374Z,23.80
2023-05-21T08:51:24.294Z,24.20
2023-05-21T08:56:26.308Z,24.50
2023-05-21T09:01:28.946Z,24.80
2023-05-21T09:06:38.832Z,24.90
2023-05-21T09:11:37.481Z,24.90
2023-05-21T09:16:37.269Z,25.30
2023-05-21T09:21:36.585Z,25.50
2023-05-21T09:26:44.595Z,25.60
2023-05-21T09:31:46.772Z,25.70
2023-05-21T09:36:46.321Z,25.70
2023-05-21T09:41:45.141Z,26.10
2023-05-21T09:46:43.833Z,26.60
2023-05-21T09:51:46.142Z,26.90
2023-05-21T09:56:44.653Z,26.90
2023-05-21T10:01:44.393Z,26.90
2023-05-21T10:06:47.797Z,27.10
2023-05-21T10:11:46.968Z,27.20
2023-05-21T10:16:46.330Z,27.40
2023-05-21T10:21:47.133Z,27.80
2023-05-21T10:26:47.478Z,28.00
2023-05-21T10:31:49.722Z,28.30
2023-05-21T10:36:51.248Z,28.20
2023-05-21T10:41:59.222Z,28.60
2023-05-21T10:47:18.568Z,29.00
2023-05-21T10:52:34.637Z,29.10
2023-05-21T10:57:55.771Z,29.40
2023-05-21T11:02:54.653Z,29.60
2023-05-21T11:07:57.955Z,29.60
2023-05-21T11:13:14.449Z,29.50
2023-05-21T11:18:16.247Z,29.60
2023-05-21T11:23:17.259Z,29.60
2023-05-21T11:28:15.705Z,29.50
2023-05-21T11:33:20.184Z,29.50
2023-05-21T11:38:21.299Z,29.40
2023-05-21T11:43:20.299Z,29.50
2023-05-21T11:48:20.138Z,29.60
2023-05-21T11:53:20.670Z,29.90
2023-05-21T11:58:20.834Z,30.00
2023-05-21T12:03:19.942Z,30.20
2023-05-21T12:08:26.412Z,30.40
2023-05-21T12:13:26.445Z,30.60
2023-05-21T12:18:25.641Z,30.60
2023-05-21T12:23:27.076Z,30.70
2023-05-21T12:28:25.652Z,30.90
2023-05-21T12:33:26.517Z,31.10
2023-05-21T12:38:31.707Z,31.30
2023-05-21T12:43:33.792Z,31.40
2023-05-21T12:48:32.655Z,31.50
2023-05-21T12:53:40.236Z,31.60
2023-05-21T12:58:39.844Z,31.60
2023-05-21T13:03:39.185Z,31.40
2023-05-21T13:08:39.772Z,31.30
2023-05-21T13:13:38.269Z,31.20
2023-05-21T13:18:37.177Z,31.10
2023-05-21T13:23:35.758Z,31.10
2023-05-21T13:28:35.635Z,31.00
2023-05-21T13:33:33.944Z,31.00
2023-05-21T13:38:32.854Z,31.00
2023-05-21T13:43:32.049Z,31.10
2023-05-21T13:48:31.938Z,31.10
2023-05-21T13:53:30.458Z,31.10
2023-05-21T13:58:29.088Z,31.10
2023-05-21T14:03:27.774Z,31.00
2023-05-21T14:08:29.726Z,30.80
2023-05-21T14:13:27.971Z,30.70
2023-05-21T14:18:26.462Z,30.60
2023-05-21T14:23:24.581Z,30.50
2023-05-21T14:28:24.783Z,30.40
2023-05-21T14:33:23.301Z,30.20
2023-05-21T14:38:21.822Z,30.10
2023-05-21T14:43:19.997Z,30.10
2023-05-21T14:48:23.209Z,30.10
2023-05-21T14:53:21.888Z,30.10
2023-05-21T14:58:20.414Z,30.00
2023-05-21T15:03:20.355Z,29.90
2023-05-21T15:08:18.542Z,29.90
2023-05-21T15:13:17.512Z,29.70
2023-05-21T15:18:16.255Z,29.70
2023-05-21T15:23:17.786Z,29.70
2023-05-21T15:28:16.638Z,29.70
2023-05-21T15:33:14.851Z,29.70
2023-05-21T15:38:15.337Z,29.60
2023-05-21T15:43:13.901Z,29.60
2023-05-21T15:48:13.478Z,29.50
2023-05-21T15:53:12.661Z,29.40
2023-05-21T15:58:12.264Z,29.40
2023-05-21T16:03:12.369Z,29.30
2023-05-21T16:08:12.550Z,29.20
2023-05-21T16:13:12.426Z,29.20
2023-05-21T16:18:11.610Z,29.10
2023-05-21T16:23:12.432Z,29.00
2023-05-21T16:28:12.646Z,29.00
2023-05-21T16:33:11.921Z,28.90
2023-05-21T16:38:10.109Z,28.90
2023-05-21T16:43:09.076Z,28.90
2023-05-21T16:48:09.593Z,28.80
2023-05-21T16:53:10.656Z,28.80
2023-05-21T16:58:09.706Z,28.70
2023-05-21T17:03:09.295Z,28.60
2023-05-21T17:08:08.961Z,28.50
2023-05-21T17:13:20.698Z,28.40
2023-05-21T17:18:22.633Z,28.30
2023-05-21T17:23:20.847Z,28.20
2023-05-21T17:28:20.938Z,28.10
2023-05-21T17:33:19.386Z,28.00
2023-05-21T17:38:19.251Z,27.90
2023-05-21T17:43:18.386Z,27.90
2023-05-21T17:48:16.631Z,27.80
2023-05-21T17:53:16.585Z,27.70
2023-05-21T17:58:16.536Z,27.60
2023-05-21T18:03:15.208Z,27.50
2023-05-21T18:08:13.782Z,27.50
2023-05-21T18:13:12.616Z,27.40
2023-05-21T18:18:19.976Z,27.30
2023-05-21T18:23:20.033Z,27.20
2023-05-21T18:28:18.589Z,27.10
2023-05-21T18:33:18.517Z,27.10
2023-05-21T18:38:17.091Z,27.00
2023-05-21T18:43:17.427Z,26.90
2023-05-21T18:48:17.602Z,26.80
2023-05-21T18:53:16.178Z,26.70
2023-05-21T18:58:15.362Z,26.60
2023-05-21T19:03:13.894Z,26.50
2023-05-21T19:08:13.773Z,26.40
2023-05-21T19:13:12.408Z,26.30
2023-05-21T19:18:11.352Z,26.20
2023-05-21T19:23:09.643Z,26.00
2023-05-21T19:28:09.932Z,25.90
2023-05-21T19:33:08.522Z,25.80
2023-05-21T19:38:07.200Z,25.60
2023-05-21T19:43:05.812Z,25.50
2023-05-21T19:48:06.125Z,25.40
2023-05-21T19:53:04.729Z,25.30
2023-05-21T19:58:02.966Z,25.20
2023-05-21T20:03:02.105Z,25.10
2023-05-21T20:08:02.056Z,24.90
2023-05-21T20:13:00.241Z,24.80
2023-05-21T20:17:59.525Z,24.60
2023-05-21T20:22:58.391Z,24.60
2023-05-21T20:28:01.483Z,24.50
2023-05-21T20:33:01.524Z,24.40
2023-05-21T20:38:02.437Z,24.30
2023-05-21T20:43:02.335Z,24.30
2023-05-21T20:48:01.360Z,24.20
2023-05-21T20:52:59.956Z,24.10
2023-05-21T20:57:58.418Z,24.00
2023-05-21T21:03:01.220Z,24.00
2023-05-21T21:08:02.786Z,23.90
2023-05-21T21:13:00.915Z,23.80
2023-05-21T21:18:01.219Z,23.70
2023-05-21T21:22:59.749Z,23.70
2023-05-21T21:27:58.250Z,23.60
2023-05-21T21:32:57.247Z,23.50
2023-05-21T21:37:56.769Z,23.50
2023-05-21T21:42:55.576Z,23.40
2023-05-21T21:47:54.187Z,23.40
2023-05-21T21:52:55.982Z,23.40
2023-05-21T21:57:55.901Z,23.30
2023-05-21T22:02:54.445Z,23.20
2023-05-21T22:07:53.216Z,23.20
2023-05-21T22:12:51.745Z,23.10
2023-05-21T22:17:52.266Z,23.00
2023-05-21T22:22:51.672Z,23.00
2023-05-21T22:27:51.329Z,22.90
2023-05-21T22:32:51.329Z,22.80
2023-05-21T22:37:49.859Z,22.80
2023-05-21T22:42:48.427Z,22.70
2023-05-21T22:47:46.619Z,22.70
2023-05-21T22:52:46.562Z,22.70
2023-05-21T22:57:45.224Z,22.60
2023-05-21T23:02:44.126Z,22.50
2023-05-21T23:07:42.779Z,22.50
2023-05-21T23:12:42.687Z,22.40
2023-05-21T23:17:41.417Z,22.30
2023-05-21T23:22:40.175Z,22.30
2023-05-21T23:27:38.366Z,22.20
2023-05-21T23:32:38.787Z,22.20
2023-05-21T23:37:37.365Z,22.10
2023-05-21T23:42:35.945Z,22.00
2023-05-21T23:47:34.510Z,22.00
2023-05-21T23:52:34.434Z,22.00
2023-05-21T23:57:32.896Z,21.90
